Lær å fly hos oss!

Oslo Flyveklubb har i mange år utdannet flygere til privatflygersetifikat PPL(A). Skolen har godkjenning for å drive utdanning til teoriundervisning til PPL(A), privatflygersertifikat PPL (A) og mørkeflyging.

Gi bort en flytur i gave

På en introduksjonstur vil kandidaten være med på forberedelser til, og gjennomføring av en flytur på en times varighet med en av våre instruktører.

Hvor vi holder til?

Flyplassen ligger i Lillestrøm 10 minutter med tog fra Oslo. Følg storgata fra Lillestrøms sentrum så vill man se plassen på venstre side.
2 days ago
Photos from Oslo Flyklubb's post

Her kommer del 2 på reisebrevet. Sist jeg skrev så var vi i Cannes. Fra Cannes fløy vi til Italia og til Milano. Linate er en klassisk flyplass så det var veldig morsomt å lande der. Fint vær ... See more

LIKE
LOVE
HAHA
WOW
SAD
ANGRY
Metar/TAF Gardermoen:

ENGM 281750Z 20013KT 9999 FEW043 17/06 Q1003 NOSIG

TAF ENGM 281700Z 2818/2918 20008KT 9999 FEW040 SCT050 PROB30 2900/2905 0800 FG BKN001 PROB40 TEMPO 2907/2914 SHRA FEW020CB BKN040